< < Back
Terminal Aerodrome Forecast


Current Version              Previous Versions:   1  2  3  4  5  6  7  8  9  

Terminal Aerodrome Forecast

402
FTUS42 KFFC 312300
TAFATL
TAF
KATL 312320Z 0100/0206 32010G18KT P6SM VCSH FEW030 BKN050
     FM010200 31014G22KT P6SM VCSH BKN025
     FM011000 33018G28KT P6SM BKN025
     FM011600 32020G35KT P6SM BKN040
     FM012000 32020G32KT P6SM SCT040
     FM020000 33015G25KT P6SM SCT070=

Latest METAR

377
SAUS70 KWBC 010700 RRL
MTRATL
METAR KATL 010652Z 30017G22KT 10SM BKN042 04/M03 A2994 RMK AO2 SLP141
T00391028 $


USA.gov is the U.S. government's official web portal to all federal, state and local government web resources and services.